Time;durP1;ratioP1;P1;durP2;ratioP2;P2;SDS_P1;SDS_P2;PMS_P1;PMS_P2;Temp;Humidity;BMP_temperature;BMP_pressure;BME280_temperature;BME280_humidity;BME280_pressure;Samples;Min_cycle;Max_cycle;Signal;HPM_P1;HPM_P2
2022/04/21 00:00:44;;;;;;;3.10;1.63;;;;;;;;;;5073929;28;20270;-79
2022/04/21 00:03:11;;;;;;;1.52;1.42;;;;;;;;;;5072470;28;20201;-79
2022/04/21 00:05:38;;;;;;;2.03;1.40;;;;;;;;;;5073955;28;20225;-79
2022/04/21 00:08:06;;;;;;;2.17;1.75;;;;;;;;;;5073427;28;20201;-79
2022/04/21 00:10:33;;;;;;;1.75;1.38;;;;;;;;;;5073720;28;20201;-79
2022/04/21 00:13:01;;;;;;;1.42;1.30;;;;;;;;;;5073563;28;20209;-79
2022/04/21 00:15:29;;;;;;;1.60;1.50;;;;;;;;;;5073617;28;20217;-78
2022/04/21 00:18:00;;;;;;;1.80;1.40;;;;;;;;;;5073464;28;20746;-79
2022/04/21 00:20:27;;;;;;;1.30;1.20;;;;;;;;;;5073744;28;20295;-79
2022/04/21 00:25:41;;;;;;;1.45;1.30;;;;;;;;;;5068473;28;20266;-79
2022/04/21 00:28:09;;;;;;;1.75;1.65;;;;;;;;;;5073653;28;20251;-79
2022/04/21 00:30:38;;;;;;;1.42;1.33;;;;;;;;;;5073372;28;20642;-79
2022/04/21 00:33:05;;;;;;;1.30;1.20;;;;;;;;;;5073260;28;20584;-79
2022/04/21 00:35:33;;;;;;;3.78;1.55;;;;;;;;;;5073156;28;20279;-78
2022/04/21 00:38:00;;;;;;;1.55;1.40;;;;;;;;;;5073151;28;20250;-79
2022/04/21 00:40:29;;;;;;;1.27;1.17;;;;;;;;;;5073428;28;20205;-78
2022/04/21 00:42:58;;;;;;;1.35;1.25;;;;;;;;;;5072860;28;20287;-78
2022/04/21 00:45:27;;;;;;;2.00;1.65;;;;;;;;;;5072861;28;20274;-78
2022/04/21 00:47:58;;;;;;;1.35;1.27;;;;;;;;;;5073345;28;20211;-79
2022/04/21 00:50:28;;;;;;;4.22;1.50;;;;;;;;;;5061101;28;20279;-79
2022/04/21 00:52:56;;;;;;;2.90;1.80;;;;;;;;;;5052959;28;20616;-79
2022/04/21 00:55:24;;;;;;;3.72;1.80;;;;;;;;;;5053907;28;20221;-79
2022/04/21 00:57:54;;;;;;;1.30;1.20;;;;;;;;;;5053430;28;20234;-79
2022/04/21 01:00:21;;;;;;;1.30;1.25;;;;;;;;;;5054074;28;20662;-78
2022/04/21 01:02:49;;;;;;;1.10;1.10;;;;;;;;;;5053387;28;20197;-79
2022/04/21 01:05:26;;;;;;;1.48;1.20;;;;;;;;;;5053819;28;20279;-79
2022/04/21 01:07:54;;;;;;;1.92;1.40;;;;;;;;;;5053920;28;20211;-79
2022/04/21 01:10:22;;;;;;;1.67;1.58;;;;;;;;;;5054082;28;20229;-78
2022/04/21 01:12:49;;;;;;;1.38;1.27;;;;;;;;;;5053467;28;20220;-79
2022/04/21 01:15:17;;;;;;;1.20;1.20;;;;;;;;;;5055489;28;20705;-79
2022/04/21 01:17:45;;;;;;;1.50;1.40;;;;;;;;;;5058315;28;20198;-78
2022/04/21 01:20:16;;;;;;;1.95;1.30;;;;;;;;;;5068555;28;20208;-79
2022/04/21 01:22:44;;;;;;;1.95;1.40;;;;;;;;;;5077149;28;20605;-78
2022/04/21 01:25:11;;;;;;;1.40;1.30;;;;;;;;;;5077714;28;20585;-79
2022/04/21 01:27:39;;;;;;;1.98;1.75;;;;;;;;;;5078353;28;20263;-78
2022/04/21 01:30:10;;;;;;;2.58;1.70;;;;;;;;;;5081275;28;20593;-79
2022/04/21 01:32:37;;;;;;;1.83;1.60;;;;;;;;;;5081059;28;20205;-79
2022/04/21 01:35:07;;;;;;;2.58;1.55;;;;;;;;;;5084361;28;20217;-78
2022/04/21 01:43:07;;;;;;;1.85;1.65;;;;;;;;;;5086597;28;20192;-77
2022/04/21 01:45:35;;;;;;;1.50;1.40;;;;;;;;;;5084028;28;20224;-78
2022/04/21 01:48:03;;;;;;;2.47;1.52;;;;;;;;;;5083378;28;20337;-78
2022/04/21 01:50:31;;;;;;;1.38;1.35;;;;;;;;;;5070141;28;20836;-79
2022/04/21 01:53:00;;;;;;;1.70;1.60;;;;;;;;;;5064626;28;20210;-79
2022/04/21 01:55:28;;;;;;;1.67;1.58;;;;;;;;;;5062624;28;20221;-79
2022/04/21 01:57:56;;;;;;;1.63;1.52;;;;;;;;;;5059779;28;20209;-79
2022/04/21 02:00:23;;;;;;;1.50;1.40;;;;;;;;;;5060943;28;20201;-77
2022/04/21 02:02:51;;;;;;;2.03;1.92;;;;;;;;;;5064175;28;20206;-78
2022/04/21 02:05:18;;;;;;;3.45;2.17;;;;;;;;;;5094044;23;20231;-85
2022/04/21 02:07:46;;;;;;;2.03;1.83;;;;;;;;;;5096321;28;20219;-86
2022/04/21 02:10:17;;;;;;;2.97;1.92;;;;;;;;;;5096326;28;20204;-85
2022/04/21 02:12:45;;;;;;;2.72;1.58;;;;;;;;;;5096025;28;20181;-86
2022/04/21 02:15:13;;;;;;;2.10;1.90;;;;;;;;;;5096111;28;20663;-86
2022/04/21 02:17:41;;;;;;;2.03;1.80;;;;;;;;;;5096130;28;20207;-86
2022/04/21 02:20:14;;;;;;;1.80;1.70;;;;;;;;;;5096139;28;20200;-85
2022/04/21 02:22:42;;;;;;;5.95;1.77;;;;;;;;;;5096672;28;20204;-85
2022/04/21 02:25:11;;;;;;;2.45;2.25;;;;;;;;;;5096003;28;20212;-86
2022/04/21 02:27:42;;;;;;;1.95;1.85;;;;;;;;;;5095777;28;20216;-85
2022/04/21 02:30:12;;;;;;;1.52;1.42;;;;;;;;;;5096249;28;20183;-85
2022/04/21 02:32:39;;;;;;;3.15;2.35;;;;;;;;;;5095760;28;20236;-84
2022/04/21 02:35:08;;;;;;;1.80;1.70;;;;;;;;;;5095710;28;20736;-85
2022/04/21 02:37:37;;;;;;;1.98;1.77;;;;;;;;;;5096136;28;20196;-84
2022/04/21 02:40:06;;;;;;;2.15;1.92;;;;;;;;;;5095578;28;20209;-85
2022/04/21 02:42:33;;;;;;;1.70;1.60;;;;;;;;;;5095580;28;20200;-86
2022/04/21 02:45:05;;;;;;;1.77;1.67;;;;;;;;;;5096076;28;20274;-86
2022/04/21 02:47:32;;;;;;;1.80;1.70;;;;;;;;;;5095525;28;20238;-85
2022/04/21 02:50:00;;;;;;;1.85;1.73;;;;;;;;;;5095365;28;20197;-85
2022/04/21 02:52:27;;;;;;;1.85;1.75;;;;;;;;;;5095342;28;20675;-85
2022/04/21 02:57:40;;;;;;;2.25;2.05;;;;;;;;;;5095811;28;20226;-85
2022/04/21 03:00:10;;;;;;;1.70;1.60;;;;;;;;;;5096976;28;20204;-86
2022/04/21 03:02:37;;;;;;;1.65;1.55;;;;;;;;;;5096583;28;20196;-85
2022/04/21 03:05:06;;;;;;;1.63;1.52;;;;;;;;;;5097067;28;20221;-86
2022/04/21 03:07:33;;;;;;;2.33;1.60;;;;;;;;;;5097064;28;20217;-88
2022/04/21 03:10:01;;;;;;;2.83;1.70;;;;;;;;;;5096907;28;20653;-88
2022/04/21 03:12:28;;;;;;;1.95;1.85;;;;;;;;;;5096911;28;20214;-88
2022/04/21 03:14:57;;;;;;;1.92;1.83;;;;;;;;;;5097547;28;20216;-88
2022/04/21 03:17:29;;;;;;;2.17;1.90;;;;;;;;;;5097230;28;20550;-86
2022/04/21 03:19:56;;;;;;;2.03;1.83;;;;;;;;;;5097370;28;20644;-88
2022/04/21 03:25:11;;;;;;;2.10;2.00;;;;;;;;;;5097156;28;20304;-88
2022/04/21 03:27:38;;;;;;;1.85;1.75;;;;;;;;;;5097458;28;20277;-87
2022/04/21 03:30:08;;;;;;;1.85;1.70;;;;;;;;;;5097002;28;20660;-87
2022/04/21 03:32:37;;;;;;;2.28;2.08;;;;;;;;;;5095768;28;20625;-89
2022/04/21 03:35:06;;;;;;;2.85;2.25;;;;;;;;;;5095206;28;20227;-85
2022/04/21 03:37:33;;;;;;;2.47;2.28;;;;;;;;;;5094536;28;20203;-86
2022/04/21 03:40:01;;;;;;;2.08;1.88;;;;;;;;;;5096165;28;20622;-88
2022/04/21 03:42:31;;;;;;;2.85;2.60;;;;;;;;;;5096553;28;20197;-84
2022/04/21 03:44:59;;;;;;;2.58;2.38;;;;;;;;;;5097417;28;20628;-83
2022/04/21 03:47:26;;;;;;;3.10;2.40;;;;;;;;;;5097934;28;20227;-84
2022/04/21 03:49:55;;;;;;;3.95;2.00;;;;;;;;;;5097146;28;20207;-83
2022/04/21 03:52:22;;;;;;;3.10;2.08;;;;;;;;;;5097381;28;20207;-83
2022/04/21 03:54:49;;;;;;;2.65;2.28;;;;;;;;;;5097169;28;20228;-83
2022/04/21 03:57:17;;;;;;;2.33;2.10;;;;;;;;;;5097470;28;20196;-84
2022/04/21 03:59:44;;;;;;;2.53;2.33;;;;;;;;;;5097348;28;20606;-83
2022/04/21 04:02:11;;;;;;;2.30;2.10;;;;;;;;;;5096850;28;20257;-84
2022/04/21 04:04:39;;;;;;;4.07;2.60;;;;;;;;;;5097700;28;20220;-84
2022/04/21 04:12:41;;;;;;;2.90;2.30;;;;;;;;;;5097243;28;20184;-84
2022/04/21 04:15:09;;;;;;;2.70;2.10;;;;;;;;;;5097530;28;20208;-83
2022/04/21 04:17:37;;;;;;;2.92;2.60;;;;;;;;;;5098227;28;20321;-85
2022/04/21 04:20:06;;;;;;;2.78;2.38;;;;;;;;;;5097137;28;20200;-86
2022/04/21 04:22:40;;;;;;;3.45;2.80;;;;;;;;;;5097036;28;20196;-85
2022/04/21 04:25:09;;;;;;;2.97;2.53;;;;;;;;;;5095478;28;20212;-88
2022/04/21 04:27:36;;;;;;;3.60;2.55;;;;;;;;;;5094392;28;20238;-87
2022/04/21 04:30:05;;;;;;;2.55;2.35;;;;;;;;;;5094466;28;20602;-86
2022/04/21 04:32:32;;;;;;;4.13;2.60;;;;;;;;;;5094622;28;20254;-88
2022/04/21 04:35:00;;;;;;;2.60;2.40;;;;;;;;;;5094381;28;20231;-87
2022/04/21 04:37:27;;;;;;;3.10;2.60;;;;;;;;;;5094337;28;20203;-85
2022/04/21 04:39:56;;;;;;;6.68;2.58;;;;;;;;;;5094655;28;20199;-87
2022/04/21 04:42:22;;;;;;;2.47;2.28;;;;;;;;;;5093911;28;20196;-87
2022/04/21 04:46:34;;;;;;;5.43;3.10;;;;;;;;;;5094521;28;20289;-87
2022/04/21 04:47:40;;;;;;;2.72;2.50;;;;;;;;;;5093718;28;20309;-86
2022/04/21 04:50:09;;;;;;;2.50;2.30;;;;;;;;;;5101645;28;20208;-87
2022/04/21 04:52:37;;;;;;;2.45;2.35;;;;;;;;;;5102958;28;20692;-86
2022/04/21 04:55:10;;;;;;;2.40;2.20;;;;;;;;;;5100635;28;20222;-86
2022/04/21 04:57:38;;;;;;;2.50;2.30;;;;;;;;;;5100626;28;20622;-87
2022/04/21 05:00:08;;;;;;;4.57;2.50;;;;;;;;;;5101220;28;20204;-87
2022/04/21 05:02:36;;;;;;;3.05;2.75;;;;;;;;;;5100909;28;20215;-87
2022/04/21 05:05:03;;;;;;;2.95;2.75;;;;;;;;;;5100380;28;20230;-86
2022/04/21 05:07:31;;;;;;;2.75;2.55;;;;;;;;;;5101184;28;20199;-85
2022/04/21 05:09:58;;;;;;;3.35;2.30;;;;;;;;;;5101294;28;20199;-87
2022/04/21 05:12:27;;;;;;;2.67;2.45;;;;;;;;;;5100767;28;20192;-86
2022/04/21 05:14:54;;;;;;;2.22;2.13;;;;;;;;;;5101694;28;20224;-86
2022/04/21 05:17:27;;;;;;;2.70;2.50;;;;;;;;;;5102438;28;20200;-87
2022/04/21 05:19:55;;;;;;;2.33;2.00;;;;;;;;;;5101620;28;20282;-87
2022/04/21 05:22:28;;;;;;;2.95;2.67;;;;;;;;;;5101106;28;20189;-87
2022/04/21 05:24:57;;;;;;;3.00;2.47;;;;;;;;;;5102008;28;20239;-88
2022/04/21 05:27:27;;;;;;;3.13;2.83;;;;;;;;;;5103072;28;20203;-88
2022/04/21 05:32:55;;;;;;;2.80;2.60;;;;;;;;;;5040295;28;20201;-88
2022/04/21 05:35:23;;;;;;;2.30;2.20;;;;;;;;;;5039610;28;20237;-89
2022/04/21 05:37:51;;;;;;;2.38;2.17;;;;;;;;;;5067909;28;20196;-88
2022/04/21 05:40:20;;;;;;;2.95;2.60;;;;;;;;;;5102521;28;20203;-88
2022/04/21 05:42:51;;;;;;;2.65;2.45;;;;;;;;;;5101420;28;20196;-87
2022/04/21 05:45:19;;;;;;;2.70;2.47;;;;;;;;;;5101019;28;20244;-88
2022/04/21 05:47:47;;;;;;;2.63;2.42;;;;;;;;;;5101570;28;20210;-88
2022/04/21 05:50:17;;;;;;;2.80;2.60;;;;;;;;;;5101517;28;20574;-88
2022/04/21 05:52:45;;;;;;;2.92;2.30;;;;;;;;;;5101398;28;20227;-88
2022/04/21 05:55:16;;;;;;;3.03;2.83;;;;;;;;;;5100962;28;20278;-88
2022/04/21 05:57:45;;;;;;;2.22;2.13;;;;;;;;;;5101327;28;20198;-89
2022/04/21 06:00:14;;;;;;;2.25;2.10;;;;;;;;;;5100560;28;20271;-89
2022/04/21 06:02:42;;;;;;;2.55;2.35;;;;;;;;;;5096963;28;20646;-88
2022/04/21 06:05:10;;;;;;;1.98;1.70;;;;;;;;;;5096706;28;20220;-88
2022/04/21 06:07:37;;;;;;;3.83;2.35;;;;;;;;;;5097657;28;20185;-88
2022/04/21 06:10:06;;;;;;;2.30;2.10;;;;;;;;;;5097313;28;20287;-88
2022/04/21 06:12:34;;;;;;;2.72;2.50;;;;;;;;;;5097385;28;20197;-87
2022/04/21 06:15:01;;;;;;;2.58;2.40;;;;;;;;;;5097060;28;20420;-88
2022/04/21 06:17:30;;;;;;;2.47;2.38;;;;;;;;;;5096792;28;20274;-88
2022/04/21 06:19:58;;;;;;;2.88;2.47;;;;;;;;;;5097257;28;20228;-88
2022/04/21 06:22:26;;;;;;;2.35;2.15;;;;;;;;;;5097735;28;20561;-88
2022/04/21 06:24:53;;;;;;;2.88;2.67;;;;;;;;;;5097716;28;20220;-89
2022/04/21 06:27:21;;;;;;;3.88;2.63;;;;;;;;;;5097864;28;20228;-88
2022/04/21 06:29:48;;;;;;;1.92;1.80;;;;;;;;;;5096759;28;20216;-88
2022/04/21 06:32:15;;;;;;;2.40;2.20;;;;;;;;;;5097264;28;20200;-88
2022/04/21 06:34:44;;;;;;;9.43;2.70;;;;;;;;;;5096286;28;20310;-88
2022/04/21 06:37:11;;;;;;;3.42;2.95;;;;;;;;;;5097249;28;20279;-88
2022/04/21 06:39:39;;;;;;;2.30;2.10;;;;;;;;;;5097290;28;20200;-88
2022/04/21 06:42:07;;;;;;;2.55;2.13;;;;;;;;;;5097266;28;20288;-88
2022/04/21 06:50:06;;;;;;;3.38;2.83;;;;;;;;;;5096732;28;20250;-88
2022/04/21 06:52:34;;;;;;;2.80;2.60;;;;;;;;;;5097333;28;20199;-88
2022/04/21 06:55:01;;;;;;;3.10;2.80;;;;;;;;;;5096922;28;20231;-88
2022/04/21 06:57:29;;;;;;;2.33;2.10;;;;;;;;;;5096116;28;20684;-88
2022/04/21 06:59:56;;;;;;;1.95;1.83;;;;;;;;;;5096765;28;20291;-87
2022/04/21 07:02:28;;;;;;;2.35;2.20;;;;;;;;;;5096637;28;20208;-87
2022/04/21 07:04:55;;;;;;;2.83;2.63;;;;;;;;;;5096799;28;20220;-88
2022/04/21 07:07:24;;;;;;;4.13;2.20;;;;;;;;;;5096698;28;20185;-88
2022/04/21 07:09:53;;;;;;;2.42;2.22;;;;;;;;;;5096533;28;20223;-88
2022/04/21 07:12:21;;;;;;;2.53;2.33;;;;;;;;;;5095688;28;20200;-88
2022/04/21 07:14:48;;;;;;;2.97;2.67;;;;;;;;;;5096018;28;20227;-87
2022/04/21 07:17:16;;;;;;;4.10;3.25;;;;;;;;;;5096400;28;20195;-88
2022/04/21 07:19:44;;;;;;;3.00;2.60;;;;;;;;;;5087381;28;20205;-88
2022/04/21 07:22:12;;;;;;;2.58;2.38;;;;;;;;;;5074605;28;20205;-88
2022/04/21 07:24:40;;;;;;;2.63;2.42;;;;;;;;;;5074453;28;20213;-89
2022/04/21 07:27:08;;;;;;;2.78;2.58;;;;;;;;;;5078281;28;20204;-88
2022/04/21 07:29:36;;;;;;;2.00;1.90;;;;;;;;;;5093574;28;20270;-88
2022/04/21 07:32:04;;;;;;;2.40;2.20;;;;;;;;;;5094080;28;20561;-89
2022/04/21 07:34:31;;;;;;;2.80;2.60;;;;;;;;;;5093655;28;20224;-88
2022/04/21 07:36:59;;;;;;;4.68;2.47;;;;;;;;;;5097111;28;20215;-88
2022/04/21 07:39:26;;;;;;;2.88;2.42;;;;;;;;;;5097818;28;20206;-89
2022/04/21 07:41:57;;;;;;;3.10;2.80;;;;;;;;;;5096988;28;20204;-90
2022/04/21 07:44:24;;;;;;;2.28;2.08;;;;;;;;;;5099274;28;20232;-90
2022/04/21 07:46:51;;;;;;;2.05;1.95;;;;;;;;;;5100655;28;20196;-91
2022/04/21 07:54:49;;;;;;;2.72;2.25;;;;;;;;;;5111174;22;20250;-78
2022/04/21 07:57:17;;;;;;;2.70;2.50;;;;;;;;;;5091202;28;20200;-77
2022/04/21 07:59:45;;;;;;;2.70;2.20;;;;;;;;;;5092075;28;20546;-77
2022/04/21 08:02:12;;;;;;;2.75;2.45;;;;;;;;;;5091531;28;20679;-77
2022/04/21 08:04:39;;;;;;;2.90;2.60;;;;;;;;;;5092273;28;20653;-77
2022/04/21 08:07:07;;;;;;;3.22;2.20;;;;;;;;;;5092106;28;20369;-77
2022/04/21 08:09:34;;;;;;;2.53;2.38;;;;;;;;;;5091938;28;20648;-77
2022/04/21 08:12:01;;;;;;;2.42;2.22;;;;;;;;;;5090924;28;20211;-77
2022/04/21 08:14:30;;;;;;;2.38;2.17;;;;;;;;;;5092195;28;20200;-77
2022/04/21 08:16:57;;;;;;;2.50;2.30;;;;;;;;;;5091071;28;20228;-77
2022/04/21 08:19:25;;;;;;;2.80;2.60;;;;;;;;;;5091570;28;20270;-77
2022/04/21 08:21:52;;;;;;;3.17;2.88;;;;;;;;;;5091327;28;20688;-77
2022/04/21 08:32:41;;;;;;;3.13;2.83;;;;;;;;;;5087728;28;20707;-79
2022/04/21 08:35:13;;;;;;;2.70;2.45;;;;;;;;;;5091996;28;20204;-78
2022/04/21 08:37:41;;;;;;;2.53;2.33;;;;;;;;;;5092036;28;20204;-78
2022/04/21 08:40:10;;;;;;;2.60;2.40;;;;;;;;;;5092455;28;20704;-78
2022/04/21 08:42:40;;;;;;;2.80;2.60;;;;;;;;;;5091247;28;20208;-77
2022/04/21 08:45:10;;;;;;;2.88;2.58;;;;;;;;;;5091795;28;20650;-76
2022/04/21 08:47:39;;;;;;;2.75;2.42;;;;;;;;;;5091668;28;20200;-77
2022/04/21 08:50:11;;;;;;;2.42;2.22;;;;;;;;;;5091741;28;20717;-78
2022/04/21 08:52:40;;;;;;;2.47;2.10;;;;;;;;;;5091205;28;20212;-78
2022/04/21 08:55:08;;;;;;;2.67;2.47;;;;;;;;;;5091584;28;20226;-78
2022/04/21 08:57:36;;;;;;;2.72;2.17;;;;;;;;;;5091227;28;20208;-79
2022/04/21 09:00:06;;;;;;;5.05;2.75;;;;;;;;;;5091855;28;20291;-77
2022/04/21 09:02:40;;;;;;;2.60;2.40;;;;;;;;;;5091101;28;20217;-76
2022/04/21 09:05:09;;;;;;;3.22;2.83;;;;;;;;;;5084911;28;20239;-77
2022/04/21 09:07:45;;;;;;;3.28;2.97;;;;;;;;;;5085398;28;20208;-77
2022/04/21 09:10:14;;;;;;;4.70;2.67;;;;;;;;;;5091696;28;20221;-77
2022/04/21 09:12:46;;;;;;;7.00;3.35;;;;;;;;;;5090979;28;20211;-77
2022/04/21 09:15:16;;;;;;;2.45;2.15;;;;;;;;;;5091196;28;20281;-76
2022/04/21 09:17:47;;;;;;;2.63;2.42;;;;;;;;;;5085259;28;20257;-78
2022/04/21 09:20:16;;;;;;;3.53;1.90;;;;;;;;;;5091853;28;20273;-78
2022/04/21 09:22:52;;;;;;;1.90;1.80;;;;;;;;;;5091710;28;20580;-79
2022/04/21 09:25:20;;;;;;;1.70;1.60;;;;;;;;;;5092245;28;20636;-78
2022/04/21 09:27:49;;;;;;;2.45;2.08;;;;;;;;;;5091877;28;20291;-77
2022/04/21 09:30:17;;;;;;;2.35;2.17;;;;;;;;;;5087850;28;20200;-78
2022/04/21 09:32:54;;;;;;;3.33;2.13;;;;;;;;;;5091106;28;20204;-77
2022/04/21 09:35:22;;;;;;;1.80;1.70;;;;;;;;;;5091462;28;20228;-77
2022/04/21 09:37:52;;;;;;;2.45;2.28;;;;;;;;;;5094982;28;20216;-78
2022/04/21 09:40:22;;;;;;;1.83;1.73;;;;;;;;;;5095838;28;20208;-78
2022/04/21 09:42:58;;;;;;;2.70;2.42;;;;;;;;;;5095459;28;20208;-79
2022/04/21 09:48:23;;;;;;;2.15;2.00;;;;;;;;;;5095561;28;20281;-79
2022/04/21 09:50:53;;;;;;;2.45;2.28;;;;;;;;;;5095662;28;20224;-78
2022/04/21 09:53:23;;;;;;;2.20;2.00;;;;;;;;;;5094959;28;20295;-79
2022/04/21 09:55:52;;;;;;;2.33;2.13;;;;;;;;;;5095190;28;20232;-78
2022/04/21 09:58:19;;;;;;;1.70;1.60;;;;;;;;;;5095513;28;20200;-78
2022/04/21 10:00:47;;;;;;;2.67;2.28;;;;;;;;;;5094987;28;20204;-78
2022/04/21 10:03:14;;;;;;;2.28;2.08;;;;;;;;;;5094580;28;20204;-78
2022/04/21 10:05:43;;;;;;;2.35;2.15;;;;;;;;;;5095356;28;20247;-78
2022/04/21 10:08:12;;;;;;;2.40;2.20;;;;;;;;;;5095242;28;20201;-78
2022/04/21 10:10:40;;;;;;;3.10;2.70;;;;;;;;;;5094612;28;20200;-78
2022/04/21 10:13:08;;;;;;;1.85;1.75;;;;;;;;;;5094589;28;20253;-78
2022/04/21 10:15:36;;;;;;;1.95;1.85;;;;;;;;;;5095313;28;20220;-79
2022/04/21 10:18:06;;;;;;;2.17;1.98;;;;;;;;;;5088907;28;20204;-78
2022/04/21 10:20:34;;;;;;;2.40;2.20;;;;;;;;;;5095114;28;20215;-78
2022/04/21 10:23:04;;;;;;;2.83;2.47;;;;;;;;;;5094171;28;20231;-78
2022/04/21 10:25:42;;;;;;;2.45;2.20;;;;;;;;;;5094410;28;20228;-78
2022/04/21 10:28:42;;;;;;;2.00;1.83;;;;;;;;;;5095078;28;20200;-79
2022/04/21 10:31:34;;;;;;;2.10;1.90;;;;;;;;;;5095299;28;20247;-79
2022/04/21 10:34:03;;;;;;;1.90;1.80;;;;;;;;;;5094264;28;20205;-79
2022/04/21 10:36:41;;;;;;;1.80;1.70;;;;;;;;;;5094655;28;20220;-78
2022/04/21 10:39:27;;;;;;;3.33;2.70;;;;;;;;;;5093970;28;20637;-77
2022/04/21 10:42:16;;;;;;;2.05;1.92;;;;;;;;;;5093250;28;20214;-79
2022/04/21 10:44:49;;;;;;;2.97;2.70;;;;;;;;;;5088071;28;20208;-79
2022/04/21 10:47:36;;;;;;;2.15;2.05;;;;;;;;;;5094288;28;20241;-79
2022/04/21 10:50:19;;;;;;;3.67;3.38;;;;;;;;;;5094778;28;20207;-79
2022/04/21 10:58:53;;;;;;;5.32;3.08;;;;;;;;;;5094661;28;20633;-78
2022/04/21 11:01:31;;;;;;;3.40;2.97;;;;;;;;;;5089324;28;20247;-79
2022/04/21 11:04:21;;;;;;;3.78;2.88;;;;;;;;;;5093672;28;20273;-78
2022/04/21 11:06:51;;;;;;;2.50;2.25;;;;;;;;;;5087455;28;20293;-78
2022/04/21 11:09:46;;;;;;;2.22;2.03;;;;;;;;;;5094928;28;20215;-79
2022/04/21 11:12:17;;;;;;;2.70;2.00;;;;;;;;;;5094818;28;20220;-81
2022/04/21 11:14:45;;;;;;;2.00;1.90;;;;;;;;;;5094726;28;20692;-79
2022/04/21 11:17:12;;;;;;;1.90;1.80;;;;;;;;;;5094808;28;20658;-79
2022/04/21 11:19:44;;;;;;;2.65;2.45;;;;;;;;;;5094522;28;20204;-79
2022/04/21 11:22:15;;;;;;;2.75;2.08;;;;;;;;;;5093506;28;20200;-79
2022/04/21 11:25:08;;;;;;;2.25;2.05;;;;;;;;;;5087472;28;20657;-78
2022/04/21 11:27:44;;;;;;;2.22;2.03;;;;;;;;;;5090964;28;20208;-79
2022/04/21 11:30:14;;;;;;;2.83;2.55;;;;;;;;;;5094336;28;20247;-78
2022/04/21 11:32:53;;;;;;;3.20;2.90;;;;;;;;;;5093827;28;20243;-79
2022/04/21 11:35:22;;;;;;;2.80;2.60;;;;;;;;;;5094827;28;20232;-79
2022/04/21 11:37:58;;;;;;;2.58;2.38;;;;;;;;;;5087909;28;20273;-79
2022/04/21 11:40:34;;;;;;;2.80;2.60;;;;;;;;;;5094222;28;20208;-78
2022/04/21 11:43:06;;;;;;;4.70;2.80;;;;;;;;;;5093364;28;20226;-79
2022/04/21 11:45:36;;;;;;;2.85;2.65;;;;;;;;;;5093844;28;20761;-79
2022/04/21 11:48:12;;;;;;;1.95;1.83;;;;;;;;;;5093704;28;20726;-79
2022/04/21 11:50:39;;;;;;;2.80;2.50;;;;;;;;;;5093977;28;20232;-80
2022/04/21 11:53:14;;;;;;;1.90;1.80;;;;;;;;;;5092431;28;20228;-80
2022/04/21 11:55:42;;;;;;;3.55;3.17;;;;;;;;;;5093766;28;20288;-79
2022/04/21 11:58:11;;;;;;;3.15;2.58;;;;;;;;;;5093800;28;20208;-80
2022/04/21 12:08:54;;;;;;;4.47;2.60;;;;;;;;;;5093802;28;20288;-80
2022/04/21 12:11:22;;;;;;;2.17;1.98;;;;;;;;;;5093335;28;20204;-79
2022/04/21 12:13:51;;;;;;;2.38;2.17;;;;;;;;;;5092472;28;20318;-80
2022/04/21 12:16:43;;;;;;;2.78;2.50;;;;;;;;;;5089285;28;20217;-79
2022/04/21 12:19:26;;;;;;;2.55;2.08;;;;;;;;;;5088887;28;20204;-79
2022/04/21 12:22:05;;;;;;;4.47;2.40;;;;;;;;;;5092353;28;20210;-80
2022/04/21 12:24:36;;;;;;;3.03;2.83;;;;;;;;;;5093453;28;20215;-80
2022/04/21 12:27:06;;;;;;;2.90;2.70;;;;;;;;;;5093329;28;20277;-79
2022/04/21 12:29:50;;;;;;;2.33;1.98;;;;;;;;;;5086978;28;20212;-80
2022/04/21 12:32:19;;;;;;;2.15;2.00;;;;;;;;;;5087950;28;20232;-79
2022/04/21 12:34:46;;;;;;;2.38;2.17;;;;;;;;;;5093148;28;20257;-79
2022/04/21 12:37:14;;;;;;;2.38;2.05;;;;;;;;;;5092739;28;20223;-80
2022/04/21 12:39:41;;;;;;;2.67;2.47;;;;;;;;;;5093044;28;20679;-79
2022/04/21 12:42:09;;;;;;;2.65;2.45;;;;;;;;;;5092756;28;20196;-80
2022/04/21 12:44:38;;;;;;;3.17;2.53;;;;;;;;;;5093061;28;20597;-79
2022/04/21 12:47:12;;;;;;;2.67;2.47;;;;;;;;;;5092298;28;20742;-79
2022/04/21 12:49:57;;;;;;;2.85;2.53;;;;;;;;;;5093545;28;20208;-79
2022/04/21 12:52:40;;;;;;;2.92;2.63;;;;;;;;;;5092923;28;20224;-81
2022/04/21 12:55:10;;;;;;;3.63;3.33;;;;;;;;;;5092604;28;20747;-80
2022/04/21 12:57:38;;;;;;;2.13;2.00;;;;;;;;;;5093035;28;20204;-80
2022/04/21 13:00:10;;;;;;;2.47;2.28;;;;;;;;;;5093269;28;20208;-80
2022/04/21 13:02:38;;;;;;;2.38;2.17;;;;;;;;;;5092157;28;20201;-80
2022/04/21 13:05:06;;;;;;;2.67;2.47;;;;;;;;;;5092647;28;20204;-80
2022/04/21 13:07:34;;;;;;;2.38;2.17;;;;;;;;;;5092622;28;20204;-81
2022/04/21 13:10:01;;;;;;;2.90;2.70;;;;;;;;;;5093439;28;20218;-80
2022/04/21 13:12:30;;;;;;;2.55;2.35;;;;;;;;;;5096170;28;20297;-80
2022/04/21 13:14:58;;;;;;;1.98;1.88;;;;;;;;;;5098436;28;20285;-79
2022/04/21 13:17:27;;;;;;;2.10;1.88;;;;;;;;;;5092898;28;20204;-81
2022/04/21 13:19:54;;;;;;;3.03;2.83;;;;;;;;;;5097186;28;20200;-81
2022/04/21 13:22:21;;;;;;;3.08;2.50;;;;;;;;;;5096287;28;20215;-80
2022/04/21 13:24:49;;;;;;;3.15;2.95;;;;;;;;;;5096962;28;20215;-81
2022/04/21 13:27:16;;;;;;;3.00;2.80;;;;;;;;;;5096600;28;20789;-79
2022/04/21 13:29:44;;;;;;;3.00;2.80;;;;;;;;;;5095869;28;20212;-80
2022/04/21 13:34:57;;;;;;;3.03;2.80;;;;;;;;;;5096295;28;20667;-80
2022/04/21 13:37:25;;;;;;;2.78;2.58;;;;;;;;;;5096519;28;20232;-80
2022/04/21 13:39:53;;;;;;;2.92;2.13;;;;;;;;;;5096981;28;20200;-79
2022/04/21 13:42:20;;;;;;;2.63;2.40;;;;;;;;;;5095888;28;20258;-79
2022/04/21 13:44:47;;;;;;;4.18;2.78;;;;;;;;;;5096748;28;20249;-79
2022/04/21 13:47:14;;;;;;;2.55;2.35;;;;;;;;;;5096149;28;20228;-80
2022/04/21 13:49:43;;;;;;;2.80;2.60;;;;;;;;;;5096513;28;20281;-79
2022/04/21 13:52:12;;;;;;;4.50;2.72;;;;;;;;;;5096687;28;20632;-80
2022/04/21 13:54:40;;;;;;;2.50;2.20;;;;;;;;;;5096316;28;20309;-80
2022/04/21 13:57:07;;;;;;;2.58;2.38;;;;;;;;;;5096012;28;20590;-80
2022/04/21 13:59:35;;;;;;;2.00;1.90;;;;;;;;;;5095788;28;20205;-79
2022/04/21 14:02:02;;;;;;;1.88;1.77;;;;;;;;;;5094879;28;20200;-80
2022/04/21 14:04:29;;;;;;;3.53;2.03;;;;;;;;;;5096648;28;20200;-80
2022/04/21 14:06:57;;;;;;;2.30;2.08;;;;;;;;;;5095917;28;20224;-79
2022/04/21 14:09:25;;;;;;;2.47;2.28;;;;;;;;;;5096008;28;20204;-79
2022/04/21 14:11:53;;;;;;;2.20;2.00;;;;;;;;;;5095265;28;20200;-79
2022/04/21 14:14:20;;;;;;;3.42;2.00;;;;;;;;;;5095564;28;20258;-80
2022/04/21 14:16:47;;;;;;;2.45;2.17;;;;;;;;;;5091902;28;20232;-79
2022/04/21 14:19:14;;;;;;;2.80;2.50;;;;;;;;;;5095549;28;20682;-80
2022/04/21 14:21:43;;;;;;;2.63;2.45;;;;;;;;;;5094449;28;20211;-79
2022/04/21 14:24:11;;;;;;;2.50;2.30;;;;;;;;;;5095719;28;20234;-79
2022/04/21 14:26:39;;;;;;;2.67;2.47;;;;;;;;;;5095216;28;20240;-79
2022/04/21 14:29:07;;;;;;;3.63;2.10;;;;;;;;;;5094942;28;20200;-79
2022/04/21 14:31:34;;;;;;;3.17;2.28;;;;;;;;;;5095197;28;20232;-79
2022/04/21 14:34:01;;;;;;;2.58;2.38;;;;;;;;;;5095151;28;20627;-80
2022/04/21 14:36:29;;;;;;;2.70;2.38;;;;;;;;;;5095019;28;20231;-79
2022/04/21 14:44:27;;;;;;;2.42;2.22;;;;;;;;;;5090599;28;20334;-79
2022/04/21 14:46:56;;;;;;;1.88;1.77;;;;;;;;;;5094908;28;20286;-79
2022/04/21 14:49:23;;;;;;;2.35;2.15;;;;;;;;;;5094639;28;20204;-79
2022/04/21 14:51:50;;;;;;;2.30;2.20;;;;;;;;;;5088008;28;20266;-79
2022/04/21 14:54:17;;;;;;;2.10;1.90;;;;;;;;;;5094674;28;20232;-80
2022/04/21 14:56:47;;;;;;;2.05;1.88;;;;;;;;;;5094425;28;20228;-79
2022/04/21 14:59:14;;;;;;;2.78;1.75;;;;;;;;;;5094567;28;20261;-79
2022/04/21 15:01:43;;;;;;;2.53;2.33;;;;;;;;;;5094100;28;20200;-79
2022/04/21 15:04:10;;;;;;;3.50;3.17;;;;;;;;;;5094813;28;20212;-80
2022/04/21 15:06:38;;;;;;;2.40;2.20;;;;;;;;;;5094932;28;20225;-79
2022/04/21 15:09:06;;;;;;;2.67;2.47;;;;;;;;;;5093576;28;20209;-79
2022/04/21 15:11:33;;;;;;;2.78;2.58;;;;;;;;;;5093255;28;20200;-78
2022/04/21 15:14:02;;;;;;;2.42;2.20;;;;;;;;;;5092951;28;20236;-78
2022/04/21 15:16:29;;;;;;;3.30;3.00;;;;;;;;;;5090430;28;20701;-79
2022/04/21 15:18:56;;;;;;;2.50;2.30;;;;;;;;;;5093379;28;20212;-78
2022/04/21 15:21:23;;;;;;;3.63;2.33;;;;;;;;;;5093983;28;20208;-79
2022/04/21 15:23:51;;;;;;;2.17;1.98;;;;;;;;;;5092412;28;20257;-78
2022/04/21 15:26:18;;;;;;;3.42;2.58;;;;;;;;;;5092728;28;20337;-77
2022/04/21 15:28:47;;;;;;;2.00;1.80;;;;;;;;;;5092526;28;20212;-77
2022/04/21 15:31:15;;;;;;;1.67;1.58;;;;;;;;;;5092677;28;20232;-77
2022/04/21 15:33:42;;;;;;;2.85;2.10;;;;;;;;;;5090373;28;20257;-77
2022/04/21 15:36:13;;;;;;;2.70;2.50;;;;;;;;;;5092902;28;20235;-78
2022/04/21 15:38:44;;;;;;;3.00;2.70;;;;;;;;;;5093188;28;21141;-79
2022/04/21 15:41:12;;;;;;;2.30;2.00;;;;;;;;;;5093732;28;20252;-79
2022/04/21 15:43:39;;;;;;;2.13;1.95;;;;;;;;;;5092560;28;20257;-78
2022/04/21 15:46:07;;;;;;;2.47;2.25;;;;;;;;;;5090802;28;20228;-78
2022/04/21 15:48:36;;;;;;;4.95;2.90;;;;;;;;;;5088899;28;20291;-78
2022/04/21 15:51:04;;;;;;;2.70;2.50;;;;;;;;;;5092595;28;20258;-78
2022/04/21 15:59:02;;;;;;;3.03;2.10;;;;;;;;;;5092752;28;20593;-78
2022/04/21 16:01:30;;;;;;;2.17;1.98;;;;;;;;;;5092849;28;20204;-78
2022/04/21 16:04:02;;;;;;;2.33;2.13;;;;;;;;;;5092230;28;20698;-78
2022/04/21 16:06:29;;;;;;;1.95;1.85;;;;;;;;;;5092897;28;20252;-78
2022/04/21 16:08:57;;;;;;;1.63;1.52;;;;;;;;;;5093092;28;20204;-79